Austin Reinauer — WCX8055 — position and weather

sailwx.info

Track history (hours):
 
Tides and Currents Weather Stations Pressure Air Temp Water Temp Dewpoint Dewpoint Depression Visibility Wind Speed Wind Dir Waves Ship Positions

Austin Reinauer

Owner: REINAUER TRANSPORTATION CO, LP, STATEN ISLAND, NY. More information available from US FCC via Universal Licensing System and Coast Guard Vessel Documentation Center.

Last reported at 2016-Jun-29 21:33 UTC. Time now 2016-Jul-01 02:50 UTC.
Position N 40°48' W 073°53'.

Length 33 m; draft 6.7 m.

Type: Tug. MMSI: 366739920.

Date/timePositionNaut miles runAvg speedWind from/ knotsBaromVisibWave heightAir tempDewpointWater temp
2016-Jun-29 21:33N 40°48' W 073°53'8 7.9
2016-Jun-29 20:33N 40°42' W 073°60'4 4.2
2016-Jun-29 19:31N 40°38' W 074°03'3 3.3
2016-Jun-29 18:33N 40°39' W 074°07'4 0.2
2016-Jun-28 22:32N 40°37' W 074°12'4 3.9
2016-Jun-28 21:33N 40°38' W 074°08'0 0.0
2016-Jun-28 20:33N 40°38' W 074°08'0 0.0
2016-Jun-28 19:33N 40°38' W 074°08'0 0.0
2016-Jun-28 18:33N 40°38' W 074°08'0 0.0
2016-Jun-28 17:33N 40°38' W 074°08'4 2.8
2016-Jun-28 16:07N 40°37' W 074°12'3 5.5
2016-Jun-28 15:34N 40°39' W 074°10'6 5.5
2016-Jun-28 14:33N 40°40' W 074°02'0 0.0
2016-Jun-28 13:32N 40°40' W 074°02'0 0.0
2016-Jun-28 12:32N 40°40' W 074°02'0 0.0
2016-Jun-28 11:32N 40°40' W 074°02'0 0.1
2016-Jun-28 10:34N 40°40' W 074°02'64 2.0
2016-Jun-27 02:23N 41°18' W 072°55'46 6.6
2016-Jun-26 19:30N 40°52' W 073°44'7 7.6
2016-Jun-26 18:33N 40°48' W 073°52'7 7.3
2016-Jun-26 17:33N 40°42' W 073°59'5 5.1
2016-Jun-26 16:33N 40°38' W 074°03'1 0.7
2016-Jun-26 15:33N 40°39' W 074°04'4 3.5
2016-Jun-26 14:33N 40°39' W 074°08'5 3.5
2016-Jun-26 13:08N 40°35' W 074°13'2 4.1
2016-Jun-26 12:33N 40°33' W 074°15'0 0.4
2016-Jun-26 11:28N 40°33' W 074°15'0 0.0
2016-Jun-26 10:28N 40°33' W 074°15'0 0.0
2016-Jun-26 09:31N 40°33' W 074°15'0 0.0
2016-Jun-26 08:31N 40°33' W 074°15'0 0.0
2016-Jun-26 07:31N 40°33' W 074°15'0 0.0
2016-Jun-26 06:25N 40°33' W 074°15'0 0.0
2016-Jun-26 03:07N 40°33' W 074°15'0 0.0
2016-Jun-25 18:09N 40°33' W 074°15'1 1.0
2016-Jun-25 17:25N 40°33' W 074°14'6 7.0
2016-Jun-25 16:34N 40°39' W 074°11'9 8.6
2016-Jun-25 15:33N 40°42' W 074°00'10 0.3
2016-Jun-23 23:19N 40°48' W 073°49'6 7.8
2016-Jun-23 22:33N 40°46' W 073°57'7 6.6
2016-Jun-23 21:33N 40°41' W 074°02'2 1.8
2016-Jun-23 20:33N 40°39' W 074°03'2 2.1
2016-Jun-23 19:33N 40°39' W 074°05'9 0.9
2016-Jun-23 09:04N 40°33' W 074°15'7 0.4
2016-Jun-22 15:33N 40°39' W 074°09'1 0.7
2016-Jun-22 14:33N 40°38' W 074°08'1 1.0
2016-Jun-22 13:33N 40°39' W 074°07'0 0.0
2016-Jun-22 12:33N 40°39' W 074°07'1 1.0
2016-Jun-22 11:33N 40°38' W 074°08'0 0.0
2016-Jun-22 10:32N 40°38' W 074°08'4 2.1
2016-Jun-22 08:33N 40°36' W 074°12'6 5.9
2016-Jun-22 07:33N 40°39' W 074°05'6410.3
2016-Jun-22 01:20N 41°05' W 072°48'810.9
2016-Jun-22 00:33N 41°07' W 072°37'1110.7
2016-Jun-21 23:33N 41°10' W 072°23'9 9.2
2016-Jun-21 22:33N 41°13' W 072°12'89 8.1
2016-Jun-21 11:33N 42°02' W 070°31'1010.4
2016-Jun-21 10:33N 42°11' W 070°37'1110.5
2016-Jun-21 09:33N 42°20' W 070°45'9 8.7
2016-Jun-21 08:33N 42°20' W 070°57'6 5.8
2016-Jun-21 07:33N 42°23' W 071°03'0 0.0
2016-Jun-21 06:33N 42°23' W 071°03'0 0.0
2016-Jun-21 04:33N 42°23' W 071°03'0 0.0
2016-Jun-21 03:33N 42°23' W 071°03'0 0.0
2016-Jun-21 02:33N 42°23' W 071°03'0 0.0
2016-Jun-21 01:33N 42°23' W 071°03'0 0.0
2016-Jun-21 00:33N 42°23' W 071°03'0 0.0
2016-Jun-20 23:33N 42°23' W 071°03'0 0.0
2016-Jun-20 22:33N 42°23' W 071°03'0 0.0
2016-Jun-20 21:33N 42°23' W 071°03'0 0.0
2016-Jun-20 20:33N 42°23' W 071°03'0 0.0
2016-Jun-20 19:33N 42°23' W 071°03'0 0.0
2016-Jun-20 18:33N 42°23' W 071°03'0 0.0
2016-Jun-20 17:33N 42°23' W 071°03'0 0.0
2016-Jun-20 16:33N 42°23' W 071°03'0 0.0
2016-Jun-20 15:33N 42°23' W 071°03'0 0.0
2016-Jun-20 14:34N 42°23' W 071°03'0 0.0
2016-Jun-20 13:34N 42°23' W 071°03'6 5.6
2016-Jun-20 12:34N 42°20' W 070°57'8 8.2
2016-Jun-20 11:34N 42°20' W 070°46'1010.3
2016-Jun-20 10:33N 42°12' W 070°37'1010.1
2016-Jun-20 09:33N 42°03' W 070°32'1110.5
2016-Jun-20 08:28N 41°52' W 070°28'7 7.4
2016-Jun-20 07:33N 41°46' W 070°34'7 6.9
2016-Jun-20 06:33N 41°41' W 070°40'21 8.7
2016-Jun-20 04:12N 41°27' W 070°60'15 8.8
2016-Jun-20 02:30N 41°24' W 071°20'8 8.1
2016-Jun-20 01:33N 41°32' W 071°20'9 9.3
2016-Jun-20 00:33N 41°41' W 071°19'6 6.2
2016-Jun-19 23:33N 41°47' W 071°22'0 0.0
2016-Jun-19 22:33N 41°47' W 071°22'  
Track history (hours):
 
Tides and Currents Weather Stations Pressure Air Temp Water Temp Dewpoint Dewpoint Depression Visibility Wind Speed Wind Dir Waves Ship Positions

Austin Reinauer

Owner: REINAUER TRANSPORTATION CO, LP, STATEN ISLAND, NY. More information available from US FCC via Universal Licensing System and Coast Guard Vessel Documentation Center.

Last reported at 2016-Jun-29 21:33 UTC. Time now 2016-Jul-01 02:50 UTC.
Position N 40°48' W 073°53'.

Length 33 m; draft 6.7 m.

Type: Tug. MMSI: 366739920.

Date/timePositionNaut miles runAvg speedWind from/ knotsBaromVisibWave heightAir tempDewpointWater temp
2016-Jun-29 21:33N 40°48' W 073°53'8 7.9
2016-Jun-29 20:33N 40°42' W 073°60'4 4.2
2016-Jun-29 19:31N 40°38' W 074°03'3 3.3
2016-Jun-29 18:33N 40°39' W 074°07'4 0.2
2016-Jun-28 22:32N 40°37' W 074°12'4 3.9
2016-Jun-28 21:33N 40°38' W 074°08'0 0.0
2016-Jun-28 20:33N 40°38' W 074°08'0 0.0
2016-Jun-28 19:33N 40°38' W 074°08'0 0.0
2016-Jun-28 18:33N 40°38' W 074°08'0 0.0
2016-Jun-28 17:33N 40°38' W 074°08'4 2.8
2016-Jun-28 16:07N 40°37' W 074°12'3 5.5
2016-Jun-28 15:34N 40°39' W 074°10'6 5.5
2016-Jun-28 14:33N 40°40' W 074°02'0 0.0
2016-Jun-28 13:32N 40°40' W 074°02'0 0.0
2016-Jun-28 12:32N 40°40' W 074°02'0 0.0
2016-Jun-28 11:32N 40°40' W 074°02'0 0.1
2016-Jun-28 10:34N 40°40' W 074°02'64 2.0
2016-Jun-27 02:23N 41°18' W 072°55'46 6.6
2016-Jun-26 19:30N 40°52' W 073°44'7 7.6
2016-Jun-26 18:33N 40°48' W 073°52'7 7.3
2016-Jun-26 17:33N 40°42' W 073°59'5 5.1
2016-Jun-26 16:33N 40°38' W 074°03'1 0.7
2016-Jun-26 15:33N 40°39' W 074°04'4 3.5
2016-Jun-26 14:33N 40°39' W 074°08'5 3.5
2016-Jun-26 13:08N 40°35' W 074°13'2 4.1
2016-Jun-26 12:33N 40°33' W 074°15'0 0.4
2016-Jun-26 11:28N 40°33' W 074°15'0 0.0
2016-Jun-26 10:28N 40°33' W 074°15'0 0.0
2016-Jun-26 09:31N 40°33' W 074°15'0 0.0
2016-Jun-26 08:31N 40°33' W 074°15'0 0.0
2016-Jun-26 07:31N 40°33' W 074°15'0 0.0
2016-Jun-26 06:25N 40°33' W 074°15'0 0.0
2016-Jun-26 03:07N 40°33' W 074°15'0 0.0
2016-Jun-25 18:09N 40°33' W 074°15'1 1.0
2016-Jun-25 17:25N 40°33' W 074°14'6 7.0
2016-Jun-25 16:34N 40°39' W 074°11'9 8.6
2016-Jun-25 15:33N 40°42' W 074°00'10 0.3
2016-Jun-23 23:19N 40°48' W 073°49'6 7.8
2016-Jun-23 22:33N 40°46' W 073°57'7 6.6
2016-Jun-23 21:33N 40°41' W 074°02'2 1.8
2016-Jun-23 20:33N 40°39' W 074°03'2 2.1
2016-Jun-23 19:33N 40°39' W 074°05'9 0.9
2016-Jun-23 09:04N 40°33' W 074°15'7 0.4
2016-Jun-22 15:33N 40°39' W 074°09'1 0.7
2016-Jun-22 14:33N 40°38' W 074°08'1 1.0
2016-Jun-22 13:33N 40°39' W 074°07'0 0.0
2016-Jun-22 12:33N 40°39' W 074°07'1 1.0
2016-Jun-22 11:33N 40°38' W 074°08'0 0.0
2016-Jun-22 10:32N 40°38' W 074°08'4 2.1
2016-Jun-22 08:33N 40°36' W 074°12'6 5.9
2016-Jun-22 07:33N 40°39' W 074°05'6410.3
2016-Jun-22 01:20N 41°05' W 072°48'810.9
2016-Jun-22 00:33N 41°07' W 072°37'1110.7
2016-Jun-21 23:33N 41°10' W 072°23'9 9.2
2016-Jun-21 22:33N 41°13' W 072°12'89 8.1
2016-Jun-21 11:33N 42°02' W 070°31'1010.4
2016-Jun-21 10:33N 42°11' W 070°37'1110.5
2016-Jun-21 09:33N 42°20' W 070°45'9 8.7
2016-Jun-21 08:33N 42°20' W 070°57'6 5.8
2016-Jun-21 07:33N 42°23' W 071°03'0 0.0
2016-Jun-21 06:33N 42°23' W 071°03'0 0.0
2016-Jun-21 04:33N 42°23' W 071°03'0 0.0
2016-Jun-21 03:33N 42°23' W 071°03'0 0.0
2016-Jun-21 02:33N 42°23' W 071°03'0 0.0
2016-Jun-21 01:33N 42°23' W 071°03'0 0.0
2016-Jun-21 00:33N 42°23' W 071°03'0 0.0
2016-Jun-20 23:33N 42°23' W 071°03'0 0.0
2016-Jun-20 22:33N 42°23' W 071°03'0 0.0
2016-Jun-20 21:33N 42°23' W 071°03'0 0.0
2016-Jun-20 20:33N 42°23' W 071°03'0 0.0
2016-Jun-20 19:33N 42°23' W 071°03'0 0.0
2016-Jun-20 18:33N 42°23' W 071°03'0 0.0
2016-Jun-20 17:33N 42°23' W 071°03'0 0.0
2016-Jun-20 16:33N 42°23' W 071°03'0 0.0
2016-Jun-20 15:33N 42°23' W 071°03'0 0.0
2016-Jun-20 14:34N 42°23' W 071°03'0 0.0
2016-Jun-20 13:34N 42°23' W 071°03'6 5.6
2016-Jun-20 12:34N 42°20' W 070°57'8 8.2
2016-Jun-20 11:34N 42°20' W 070°46'1010.3
2016-Jun-20 10:33N 42°12' W 070°37'1010.1
2016-Jun-20 09:33N 42°03' W 070°32'1110.5
2016-Jun-20 08:28N 41°52' W 070°28'7 7.4
2016-Jun-20 07:33N 41°46' W 070°34'7 6.9
2016-Jun-20 06:33N 41°41' W 070°40'21 8.7
2016-Jun-20 04:12N 41°27' W 070°60'15 8.8
2016-Jun-20 02:30N 41°24' W 071°20'8 8.1
2016-Jun-20 01:33N 41°32' W 071°20'9 9.3
2016-Jun-20 00:33N 41°41' W 071°19'6 6.2
2016-Jun-19 23:33N 41°47' W 071°22'0 0.0
2016-Jun-19 22:33N 41°47' W 071°22'  

Dump ship's entire track history